createdAt,value
2023-02-27T00:02:24.121Z,97942.28
2023-02-27T00:04:51.059Z,97942.50
2023-02-27T00:07:18.181Z,97947.44
2023-02-27T00:09:44.843Z,97945.16
2023-02-27T00:12:12.130Z,97944.34
2023-02-27T00:14:38.796Z,97935.88
2023-02-27T00:17:05.517Z,97941.91
2023-02-27T00:19:32.108Z,97949.03
2023-02-27T00:21:58.846Z,97948.69
2023-02-27T00:24:25.630Z,97946.06
2023-02-27T00:26:52.344Z,97963.44
2023-02-27T00:29:19.777Z,97960.59
2023-02-27T00:31:51.630Z,97972.38
2023-02-27T00:34:18.505Z,97971.38
2023-02-27T00:36:45.145Z,97969.88
2023-02-27T00:39:11.781Z,97979.84
2023-02-27T00:41:38.472Z,97979.09
2023-02-27T00:44:05.386Z,97984.59
2023-02-27T00:46:31.998Z,97975.97
2023-02-27T00:48:58.791Z,97980.66
2023-02-27T00:51:25.863Z,97987.97
2023-02-27T00:53:52.796Z,97982.56
2023-02-27T00:56:19.385Z,97989.84
2023-02-27T00:58:46.214Z,97979.75
2023-02-27T01:01:15.430Z,97986.44
2023-02-27T01:03:42.543Z,97993.81
2023-02-27T01:06:10.835Z,97990.63
2023-02-27T01:08:37.597Z,97991.81
2023-02-27T01:11:05.572Z,97997.06
2023-02-27T01:13:32.480Z,97990.97
2023-02-27T01:15:59.105Z,98001.88
2023-02-27T01:18:25.812Z,98003.28
2023-02-27T01:20:54.451Z,97994.72
2023-02-27T01:23:22.184Z,97997.81
2023-02-27T01:25:49.540Z,98008.00
2023-02-27T01:28:17.028Z,98003.75
2023-02-27T01:30:44.126Z,97999.44
2023-02-27T01:33:14.251Z,98005.28
2023-02-27T01:35:41.022Z,98006.06
2023-02-27T01:38:07.638Z,98007.44
2023-02-27T01:40:39.714Z,98013.22
2023-02-27T01:43:10.326Z,98003.94
2023-02-27T01:45:41.542Z,98007.44
2023-02-27T01:48:29.364Z,98024.28
2023-02-27T01:51:10.403Z,98019.19
2023-02-27T01:53:39.026Z,98014.81
2023-02-27T01:56:12.509Z,98019.84
2023-02-27T01:58:40.287Z,98029.06
2023-02-27T02:01:07.192Z,98026.47
2023-02-27T02:03:43.927Z,98034.75
2023-02-27T02:06:12.448Z,97994.78
2023-02-27T02:08:44.250Z,98043.19
2023-02-27T02:11:13.146Z,98039.78
2023-02-27T02:13:41.595Z,98035.75
2023-02-27T02:16:30.468Z,98044.06
2023-02-27T02:19:20.334Z,98050.13
2023-02-27T02:22:24.834Z,98053.66
2023-02-27T02:25:00.389Z,98061.13
2023-02-27T02:27:32.178Z,98058.41
2023-02-27T02:30:14.153Z,98057.09
2023-02-27T02:32:43.510Z,98062.63
2023-02-27T02:35:22.764Z,98066.78
2023-02-27T02:38:23.333Z,98070.06
2023-02-27T02:41:11.350Z,98071.69
2023-02-27T02:44:13.481Z,98074.88
2023-02-27T02:47:08.099Z,98080.78
2023-02-27T02:49:54.814Z,98081.66
2023-02-27T02:52:30.281Z,98085.13
2023-02-27T02:55:03.124Z,98087.66
2023-02-27T02:57:37.254Z,98096.16
2023-02-27T03:00:14.928Z,98081.78
2023-02-27T03:02:58.860Z,98102.75
2023-02-27T03:05:32.908Z,98088.31
2023-02-27T03:08:08.826Z,98110.88
2023-02-27T03:10:52.535Z,98114.13
2023-02-27T03:13:36.747Z,98110.28
2023-02-27T03:16:19.614Z,98116.88
2023-02-27T03:19:16.625Z,98120.00
2023-02-27T03:22:07.346Z,98119.00
2023-02-27T03:24:41.905Z,98131.50
2023-02-27T03:27:10.019Z,98129.84
2023-02-27T03:30:01.299Z,98130.53
2023-02-27T03:32:42.602Z,98138.09
2023-02-27T03:35:11.525Z,98137.34
2023-02-27T03:38:01.459Z,98142.97
2023-02-27T03:41:00.563Z,98143.75
2023-02-27T03:44:04.323Z,98152.91
2023-02-27T03:46:31.609Z,98160.16
2023-02-27T03:48:58.619Z,98156.06
2023-02-27T03:51:28.453Z,98156.38
2023-02-27T03:54:13.941Z,98150.28
2023-02-27T03:56:43.104Z,98149.56
2023-02-27T03:59:10.318Z,98158.84
2023-02-27T04:01:43.857Z,98168.72
2023-02-27T04:04:13.590Z,98166.94
2023-02-27T04:07:24.933Z,98172.66
2023-02-27T04:09:51.744Z,98175.63
2023-02-27T04:12:34.694Z,98174.44
2023-02-27T04:15:39.611Z,98181.19
2023-02-27T04:18:37.139Z,98179.38
2023-02-27T04:21:31.496Z,98182.72
2023-02-27T04:24:13.435Z,98180.88
2023-02-27T04:26:52.767Z,98182.09
2023-02-27T04:29:22.438Z,98189.38
2023-02-27T04:32:11.215Z,98179.34
2023-02-27T04:34:49.214Z,98182.81
2023-02-27T04:37:31.206Z,98183.63
2023-02-27T04:40:12.173Z,98184.66
2023-02-27T04:42:44.862Z,98185.81
2023-02-27T04:45:15.792Z,98184.72
2023-02-27T04:48:05.636Z,98191.97
2023-02-27T04:50:44.773Z,98193.97
2023-02-27T04:53:47.932Z,98194.38
2023-02-27T04:56:23.366Z,98197.41
2023-02-27T04:58:55.268Z,98193.19
2023-02-27T05:01:33.802Z,98188.97
2023-02-27T05:04:02.985Z,98198.41
2023-02-27T05:06:34.071Z,98189.06
2023-02-27T05:09:24.251Z,98195.13
2023-02-27T05:11:58.867Z,98195.13
2023-02-27T05:14:31.974Z,98200.28
2023-02-27T05:17:11.920Z,98194.31
2023-02-27T05:19:41.247Z,98196.28
2023-02-27T05:22:13.527Z,98197.97
2023-02-27T05:25:08.001Z,98196.66
2023-02-27T05:27:49.676Z,98199.72
2023-02-27T05:30:26.991Z,98192.88
2023-02-27T05:33:06.858Z,98192.97
2023-02-27T05:35:49.050Z,98204.19
2023-02-27T05:38:25.226Z,98208.69
2023-02-27T05:41:11.444Z,98204.94
2023-02-27T05:43:45.033Z,98213.38
2023-02-27T05:46:28.856Z,98197.94
2023-02-27T05:49:00.653Z,98204.44
2023-02-27T05:51:32.522Z,98206.53
2023-02-27T05:54:10.229Z,98221.38
2023-02-27T05:56:38.410Z,98206.84
2023-02-27T05:59:30.911Z,98213.72
2023-02-27T06:01:57.741Z,98212.94
2023-02-27T06:04:24.549Z,98218.72
2023-02-27T06:06:52.378Z,98219.47
2023-02-27T06:09:20.482Z,98224.56
2023-02-27T06:11:48.064Z,98221.69
2023-02-27T06:14:14.876Z,98215.50
2023-02-27T06:16:41.592Z,98228.44
2023-02-27T06:19:08.138Z,98226.22
2023-02-27T06:21:34.886Z,98229.16
2023-02-27T06:24:01.557Z,98232.66
2023-02-27T06:26:28.559Z,98234.34
2023-02-27T06:28:55.322Z,98223.44
2023-02-27T06:31:22.162Z,98233.72
2023-02-27T06:33:48.826Z,98237.22
2023-02-27T06:36:15.532Z,98238.06
2023-02-27T06:38:42.130Z,98238.13
2023-02-27T06:41:08.998Z,98235.59
2023-02-27T06:43:37.229Z,98254.28
2023-02-27T06:46:04.033Z,98250.88
2023-02-27T06:48:30.657Z,98262.53
2023-02-27T06:50:57.627Z,98259.94
2023-02-27T06:53:24.958Z,98273.34
2023-02-27T06:55:51.706Z,98265.69
2023-02-27T06:58:18.761Z,98262.19
2023-02-27T07:00:45.855Z,98265.50
2023-02-27T07:03:13.191Z,98270.19
2023-02-27T07:05:41.332Z,98277.78
2023-02-27T07:08:08.241Z,98276.66
2023-02-27T07:10:34.989Z,98279.84
2023-02-27T07:13:03.020Z,98287.13
2023-02-27T07:15:30.006Z,98287.75
2023-02-27T07:17:57.112Z,98285.03
2023-02-27T07:20:23.884Z,98282.25
2023-02-27T07:22:51.028Z,98287.06
2023-02-27T07:25:17.805Z,98289.56
2023-02-27T07:27:46.026Z,98297.00
2023-02-27T07:30:13.167Z,98299.66
2023-02-27T07:32:40.169Z,98292.13
2023-02-27T07:35:07.891Z,98297.13
2023-02-27T07:37:34.615Z,98304.63
2023-02-27T07:40:01.522Z,98298.69
2023-02-27T07:42:28.209Z,98308.66
2023-02-27T07:44:54.975Z,98308.69
2023-02-27T07:47:21.649Z,98308.78
2023-02-27T07:49:48.488Z,98313.78
2023-02-27T07:52:15.062Z,98321.16
2023-02-27T07:54:41.964Z,98318.53
2023-02-27T07:57:08.641Z,98330.09
2023-02-27T07:59:35.289Z,98324.09
2023-02-27T08:02:02.133Z,98334.34
2023-02-27T08:04:28.914Z,98339.22
2023-02-27T08:06:55.566Z,98341.66
2023-02-27T08:09:22.295Z,98339.94
2023-02-27T08:11:49.371Z,98335.88
2023-02-27T08:14:16.331Z,98345.94
2023-02-27T08:16:42.962Z,98354.47
2023-02-27T08:19:09.728Z,98345.16
2023-02-27T08:21:36.479Z,98359.56
2023-02-27T08:24:03.259Z,98355.53
2023-02-27T08:26:31.197Z,98350.28
2023-02-27T08:28:58.162Z,98361.94
2023-02-27T08:31:24.798Z,98365.28
2023-02-27T08:34:01.088Z,98364.31
2023-02-27T08:36:31.018Z,98370.22
2023-02-27T08:38:57.679Z,98369.06
2023-02-27T08:41:24.363Z,98370.13
2023-02-27T08:43:51.005Z,98377.66
2023-02-27T08:46:17.902Z,98370.16
2023-02-27T08:48:44.456Z,98379.38
2023-02-27T08:51:11.107Z,98380.53
2023-02-27T08:53:37.888Z,98381.22
2023-02-27T08:56:04.829Z,98386.88
2023-02-27T08:58:31.421Z,98376.34
2023-02-27T09:00:58.161Z,98388.13
2023-02-27T09:03:28.496Z,98387.31
2023-02-27T09:05:56.415Z,98389.59
2023-02-27T09:08:23.465Z,98381.69
2023-02-27T09:10:50.446Z,98390.81
2023-02-27T09:13:17.149Z,98397.38
2023-02-27T09:15:44.012Z,98398.19
2023-02-27T09:18:10.699Z,98392.56
2023-02-27T09:20:37.389Z,98398.63
2023-02-27T09:23:04.340Z,98398.34
2023-02-27T09:25:31.306Z,98400.94
2023-02-27T09:27:58.155Z,98404.06
2023-02-27T09:30:25.371Z,98403.81
2023-02-27T09:32:52.009Z,98401.94
2023-02-27T09:35:20.466Z,98412.19
2023-02-27T09:37:48.313Z,98406.94
2023-02-27T09:40:25.938Z,98411.75
2023-02-27T09:42:58.189Z,98412.31
2023-02-27T09:45:28.602Z,98402.91
2023-02-27T09:48:12.658Z,98415.34
2023-02-27T09:50:42.674Z,98413.59
2023-02-27T09:53:16.973Z,98414.88
2023-02-27T09:55:45.999Z,98417.06
2023-02-27T09:58:34.137Z,98427.44
2023-02-27T10:01:11.928Z,98419.56
2023-02-27T10:04:23.372Z,98421.66
2023-02-27T10:07:02.688Z,98420.47
2023-02-27T10:09:35.272Z,98427.75
2023-02-27T10:12:29.804Z,98427.38
2023-02-27T10:15:11.662Z,98426.22
2023-02-27T10:17:53.024Z,98428.97
2023-02-27T10:20:26.926Z,98426.25
2023-02-27T10:22:58.044Z,98421.69
2023-02-27T10:25:31.563Z,98414.59
2023-02-27T10:28:11.910Z,98423.50
2023-02-27T10:30:39.042Z,98424.22
2023-02-27T10:33:48.021Z,98418.78
2023-02-27T10:36:32.576Z,98431.88
2023-02-27T10:39:11.134Z,98430.13
2023-02-27T10:41:39.954Z,98418.75
2023-02-27T10:44:06.876Z,98416.75
2023-02-27T10:46:38.334Z,98422.84
2023-02-27T10:49:25.338Z,98412.31
2023-02-27T10:52:13.439Z,98413.72
2023-02-27T10:54:41.724Z,98409.44
2023-02-27T10:57:20.431Z,98417.91
2023-02-27T10:59:59.506Z,98412.94
2023-02-27T11:02:36.955Z,98404.69
2023-02-27T11:05:06.258Z,98414.31
2023-02-27T11:07:38.594Z,98405.88
2023-02-27T11:10:25.622Z,98413.72
2023-02-27T11:13:06.842Z,98410.28
2023-02-27T11:15:38.446Z,98405.13
2023-02-27T11:18:29.354Z,98404.28
2023-02-27T11:21:25.566Z,98401.91
2023-02-27T11:24:01.492Z,98390.59
2023-02-27T11:26:34.247Z,98391.78
2023-02-27T11:29:11.598Z,98387.41
2023-02-27T11:31:39.700Z,98387.56
2023-02-27T11:34:08.302Z,98376.25
2023-02-27T11:36:41.402Z,98380.41
2023-02-27T11:39:29.989Z,98378.63
2023-02-27T11:41:59.266Z,98374.53
2023-02-27T11:44:49.811Z,98375.34
2023-02-27T11:47:23.111Z,98376.84
2023-02-27T11:49:58.617Z,98374.81
2023-02-27T11:52:44.085Z,98368.84
2023-02-27T11:55:17.842Z,98369.84
2023-02-27T11:57:50.389Z,98347.75
2023-02-27T12:00:33.020Z,98352.19
2023-02-27T12:03:10.145Z,98356.91
2023-02-27T12:05:58.351Z,98352.81
2023-02-27T12:08:31.208Z,98355.97
2023-02-27T12:11:18.557Z,98346.41
2023-02-27T12:13:51.756Z,98355.56
2023-02-27T12:16:33.137Z,98336.84
2023-02-27T12:19:12.145Z,98340.50
2023-02-27T12:21:49.984Z,98337.88
2023-02-27T12:24:25.832Z,98339.78
2023-02-27T12:27:16.479Z,98333.28
2023-02-27T12:29:53.653Z,98323.28
2023-02-27T12:32:42.802Z,98329.59
2023-02-27T12:35:22.373Z,98331.06
2023-02-27T12:37:49.178Z,98324.34
2023-02-27T12:40:18.500Z,98321.69
2023-02-27T12:42:50.862Z,98330.47
2023-02-27T12:45:50.968Z,98324.13
2023-02-27T12:48:39.566Z,98327.53
2023-02-27T12:51:27.373Z,98324.75
2023-02-27T12:54:10.186Z,98323.88
2023-02-27T12:57:14.158Z,98328.03
2023-02-27T12:59:58.237Z,98317.59
2023-02-27T13:02:43.406Z,98326.56
2023-02-27T13:05:12.889Z,98319.78
2023-02-27T13:07:59.737Z,98326.41
2023-02-27T13:10:32.502Z,98326.97
2023-02-27T13:13:09.372Z,98326.09
2023-02-27T13:16:11.789Z,98327.16
2023-02-27T13:18:51.077Z,98332.47
2023-02-27T13:21:26.124Z,98326.97
2023-02-27T13:24:00.474Z,98326.25
2023-02-27T13:26:34.951Z,98331.94
2023-02-27T13:29:02.538Z,98329.38
2023-02-27T13:32:01.380Z,98331.28
2023-02-27T13:34:31.130Z,98319.34
2023-02-27T13:37:03.507Z,98329.59
2023-02-27T13:39:45.689Z,98337.91
2023-02-27T13:42:27.864Z,98339.84
2023-02-27T13:44:58.855Z,98337.50
2023-02-27T13:47:31.402Z,98339.84
2023-02-27T13:50:00.135Z,98336.78
2023-02-27T13:52:36.201Z,98335.97
2023-02-27T13:55:12.099Z,98333.28
2023-02-27T13:57:39.460Z,98333.94
2023-02-27T14:00:23.031Z,98345.84
2023-02-27T14:03:00.191Z,98344.56
2023-02-27T14:05:38.760Z,98347.91
2023-02-27T14:08:08.386Z,98344.34
2023-02-27T14:10:37.270Z,98344.53
2023-02-27T14:13:04.430Z,98343.16
2023-02-27T14:15:30.958Z,98346.47
2023-02-27T14:18:14.260Z,98352.75
2023-02-27T14:20:44.614Z,98355.38
2023-02-27T14:23:17.112Z,98353.00
2023-02-27T14:25:54.224Z,98359.00
2023-02-27T14:28:47.697Z,98354.03
2023-02-27T14:31:30.040Z,98363.91
2023-02-27T14:34:00.865Z,98369.84
2023-02-27T14:36:35.092Z,98360.41
2023-02-27T14:39:04.156Z,98356.94
2023-02-27T14:41:51.510Z,98364.75
2023-02-27T14:44:27.888Z,98362.06
2023-02-27T14:47:02.931Z,98366.00
2023-02-27T14:49:32.803Z,98359.84
2023-02-27T14:52:21.353Z,98362.31
2023-02-27T14:54:49.432Z,98359.84
2023-02-27T14:57:22.187Z,98363.75
2023-02-27T14:59:53.542Z,98366.28
2023-02-27T15:02:36.023Z,98364.22
2023-02-27T15:05:02.587Z,98369.69
2023-02-27T15:07:32.048Z,98367.28
2023-02-27T15:10:06.049Z,98359.78
2023-02-27T15:12:39.226Z,98370.50
2023-02-27T15:15:09.089Z,98361.59
2023-02-27T15:17:46.071Z,98379.13
2023-02-27T15:20:27.594Z,98376.44
2023-02-27T15:22:54.289Z,98374.75
2023-02-27T15:25:39.809Z,98387.06
2023-02-27T15:28:19.228Z,98386.81
2023-02-27T15:30:51.002Z,98389.66
2023-02-27T15:33:18.732Z,98388.00
2023-02-27T15:35:46.413Z,98391.41
2023-02-27T15:38:31.070Z,98400.66
2023-02-27T15:40:59.750Z,98389.88
2023-02-27T15:43:28.154Z,98398.41
2023-02-27T15:45:58.149Z,98407.81
2023-02-27T15:48:25.618Z,98413.69
2023-02-27T15:50:55.134Z,98417.59
2023-02-27T15:53:24.935Z,98418.63
2023-02-27T15:55:55.512Z,98424.41
2023-02-27T15:58:34.806Z,98425.47
2023-02-27T16:01:08.187Z,98425.53
2023-02-27T16:03:42.413Z,98424.66
2023-02-27T16:06:12.440Z,98434.66
2023-02-27T16:08:44.882Z,98438.28
2023-02-27T16:11:23.321Z,98447.53
2023-02-27T16:13:50.814Z,98442.06
2023-02-27T16:16:20.170Z,98456.69
2023-02-27T16:18:53.146Z,98454.72
2023-02-27T16:21:25.756Z,98434.47
2023-02-27T16:23:53.989Z,98460.69
2023-02-27T16:26:36.649Z,98451.53
2023-02-27T16:29:20.299Z,98464.59
2023-02-27T16:31:55.883Z,98455.59
2023-02-27T16:34:45.466Z,98463.97
2023-02-27T16:37:27.105Z,98474.06
2023-02-27T16:39:54.583Z,98474.22
2023-02-27T16:42:21.865Z,98476.03
2023-02-27T16:44:48.663Z,98477.53
2023-02-27T16:47:15.429Z,98488.41
2023-02-27T16:49:44.407Z,98484.97
2023-02-27T16:52:11.585Z,98480.88
2023-02-27T16:54:38.414Z,98489.50
2023-02-27T16:57:05.244Z,98492.16
2023-02-27T16:59:40.475Z,98501.50
2023-02-27T17:02:12.596Z,98500.47
2023-02-27T17:04:39.550Z,98509.00
2023-02-27T17:07:06.943Z,98489.81
2023-02-27T17:09:35.109Z,98505.88
2023-02-27T17:12:02.012Z,98515.34
2023-02-27T17:14:28.788Z,98506.34
2023-02-27T17:17:02.691Z,98514.72
2023-02-27T17:19:29.368Z,98526.31
2023-02-27T17:21:56.227Z,98518.88
2023-02-27T17:24:23.279Z,98528.75
2023-02-27T17:26:52.179Z,98524.41
2023-02-27T17:29:19.478Z,98543.06
2023-02-27T17:31:46.510Z,98544.25
2023-02-27T17:34:13.268Z,98543.50
2023-02-27T17:36:39.926Z,98546.28
2023-02-27T17:39:07.163Z,98553.06
2023-02-27T17:41:34.158Z,98553.22
2023-02-27T17:44:01.776Z,98561.28
2023-02-27T17:46:31.444Z,98556.81
2023-02-27T17:49:00.673Z,98573.78
2023-02-27T17:51:29.954Z,98576.97
2023-02-27T17:53:57.572Z,98544.31
2023-02-27T17:56:24.347Z,98571.69
2023-02-27T17:58:51.384Z,98558.22
2023-02-27T18:01:23.030Z,98585.69
2023-02-27T18:03:50.340Z,98584.97
2023-02-27T18:06:17.773Z,98586.50
2023-02-27T18:08:44.891Z,98585.56
2023-02-27T18:11:13.958Z,98584.91
2023-02-27T18:13:41.457Z,98598.34
2023-02-27T18:16:09.536Z,98595.69
2023-02-27T18:18:37.722Z,98600.59
2023-02-27T18:21:08.135Z,98606.59
2023-02-27T18:23:34.932Z,98602.16
2023-02-27T18:26:02.068Z,98605.03
2023-02-27T18:28:29.026Z,98605.06
2023-02-27T18:30:56.331Z,98609.28
2023-02-27T18:33:23.907Z,98613.00
2023-02-27T18:35:50.856Z,98613.06
2023-02-27T18:38:17.690Z,98618.16
2023-02-27T18:40:44.576Z,98609.81
2023-02-27T18:43:11.891Z,98619.13
2023-02-27T18:45:38.636Z,98620.81
2023-02-27T18:48:06.177Z,98615.94
2023-02-27T18:50:32.833Z,98615.19
2023-02-27T18:53:00.273Z,98615.28
2023-02-27T18:55:26.998Z,98621.38
2023-02-27T18:57:53.728Z,98619.56
2023-02-27T19:00:24.364Z,98618.53
2023-02-27T19:02:51.281Z,98611.81
2023-02-27T19:05:18.262Z,98616.09
2023-02-27T19:07:45.044Z,98619.28
2023-02-27T19:10:12.180Z,98621.50
2023-02-27T19:12:39.041Z,98613.16
2023-02-27T19:15:06.184Z,98623.19
2023-02-27T19:17:33.742Z,98624.22
2023-02-27T19:20:00.640Z,98630.28
2023-02-27T19:22:29.482Z,98631.97
2023-02-27T19:24:57.017Z,98630.34
2023-02-27T19:27:24.351Z,98633.25
2023-02-27T19:29:51.689Z,98638.13
2023-02-27T19:32:18.864Z,98640.69
2023-02-27T19:34:45.647Z,98639.00
2023-02-27T19:37:12.400Z,98636.41
2023-02-27T19:39:39.025Z,98632.94
2023-02-27T19:42:05.931Z,98647.13
2023-02-27T19:44:32.564Z,98656.09
2023-02-27T19:47:00.260Z,98650.28
2023-02-27T19:49:27.400Z,98654.19
2023-02-27T19:51:54.617Z,98657.72
2023-02-27T19:54:21.243Z,98649.31
2023-02-27T19:56:48.095Z,98654.72
2023-02-27T19:59:15.003Z,98656.81
2023-02-27T20:01:42.105Z,98661.88
2023-02-27T20:04:09.032Z,98665.22
2023-02-27T20:06:42.715Z,98663.50
2023-02-27T20:09:14.457Z,98670.16
2023-02-27T20:11:43.507Z,98667.72
2023-02-27T20:14:10.873Z,98673.31
2023-02-27T20:16:37.759Z,98675.09
2023-02-27T20:19:05.551Z,98677.69
2023-02-27T20:21:33.801Z,98689.00
2023-02-27T20:24:01.376Z,98688.75
2023-02-27T20:26:31.440Z,98692.00
2023-02-27T20:29:04.514Z,98696.06
2023-02-27T20:31:33.887Z,98696.97
2023-02-27T20:34:05.952Z,98690.50
2023-02-27T20:36:35.942Z,98690.69
2023-02-27T20:39:04.296Z,98702.34
2023-02-27T20:41:31.617Z,98705.94
2023-02-27T20:43:58.663Z,98706.78
2023-02-27T20:46:28.479Z,98714.16
2023-02-27T20:48:57.783Z,98707.34
2023-02-27T20:51:25.747Z,98713.94
2023-02-27T20:53:55.273Z,98724.09
2023-02-27T20:56:24.751Z,98708.25
2023-02-27T20:58:51.892Z,98725.38
2023-02-27T21:01:20.127Z,98735.38
2023-02-27T21:03:50.387Z,98728.69
2023-02-27T21:06:18.681Z,98745.09
2023-02-27T21:08:47.660Z,98748.66
2023-02-27T21:11:18.541Z,98745.22
2023-02-27T21:13:49.992Z,98751.19
2023-02-27T21:16:18.652Z,98752.06
2023-02-27T21:18:45.439Z,98745.88
2023-02-27T21:21:16.835Z,98748.16
2023-02-27T21:23:44.045Z,98749.72
2023-02-27T21:26:17.877Z,98748.78
2023-02-27T21:28:47.818Z,98752.03
2023-02-27T21:31:17.097Z,98757.84
2023-02-27T21:33:44.293Z,98753.53
2023-02-27T21:36:12.171Z,98760.09
2023-02-27T21:38:39.815Z,98754.97
2023-02-27T21:41:11.403Z,98765.06
2023-02-27T21:43:42.149Z,98748.06
2023-02-27T21:46:12.922Z,98761.41
2023-02-27T21:48:39.794Z,98760.53
2023-02-27T21:51:13.166Z,98764.03
2023-02-27T21:53:40.854Z,98759.81
2023-02-27T21:56:10.281Z,98755.53
2023-02-27T21:58:39.583Z,98753.78
2023-02-27T22:01:18.130Z,98763.97
2023-02-27T22:03:46.970Z,98758.78
2023-02-27T22:06:15.231Z,98767.31
2023-02-27T22:08:42.325Z,98765.50
2023-02-27T22:11:09.678Z,98775.50
2023-02-27T22:13:37.372Z,98776.16
2023-02-27T22:16:09.417Z,98783.88
2023-02-27T22:18:36.885Z,98782.41
2023-02-27T22:21:06.897Z,98778.97
2023-02-27T22:23:33.623Z,98789.94
2023-02-27T22:26:22.804Z,98794.88
2023-02-27T22:28:50.213Z,98786.25
2023-02-27T22:31:20.417Z,98786.38
2023-02-27T22:33:50.037Z,98799.16
2023-02-27T22:36:22.668Z,98794.94
2023-02-27T22:38:49.599Z,98789.78
2023-02-27T22:41:19.524Z,98800.94
2023-02-27T22:43:46.490Z,98796.72
2023-02-27T22:46:17.278Z,98800.03
2023-02-27T22:48:44.301Z,98805.00
2023-02-27T22:51:14.668Z,98805.97
2023-02-27T22:53:43.512Z,98807.59
2023-02-27T22:56:13.036Z,98812.69
2023-02-27T22:58:41.136Z,98810.25
2023-02-27T23:01:13.132Z,98817.25
2023-02-27T23:03:40.738Z,98818.88
2023-02-27T23:06:09.996Z,98805.44
2023-02-27T23:08:36.989Z,98817.28
2023-02-27T23:11:04.128Z,98811.22
2023-02-27T23:13:32.205Z,98819.97
2023-02-27T23:15:59.939Z,98809.09
2023-02-27T23:18:26.862Z,98815.88
2023-02-27T23:20:53.516Z,98821.81
2023-02-27T23:23:20.374Z,98816.63
2023-02-27T23:25:47.003Z,98816.78
2023-02-27T23:28:13.725Z,98826.88
2023-02-27T23:30:40.357Z,98821.16
2023-02-27T23:33:07.031Z,98820.28
2023-02-27T23:35:33.663Z,98832.97
2023-02-27T23:38:00.731Z,98833.81
2023-02-27T23:40:27.946Z,98828.78
2023-02-27T23:42:54.879Z,98833.09
2023-02-27T23:45:24.410Z,98841.53
2023-02-27T23:47:58.807Z,98845.56
2023-02-27T23:50:28.629Z,98846.28
2023-02-27T23:52:57.170Z,98846.28
2023-02-27T23:55:23.942Z,98846.38
2023-02-27T23:57:54.922Z,98838.91
